sensor_id;sensor_type;location;lat;lon;timestamp;P1;durP1;ratioP1;P2;durP2;ratioP2
23539;SDS011;11947;50.810;4.394;2023-05-07T05:25:06;16.75;;;5.20;;
23539;SDS011;11947;50.810;4.394;2023-05-07T05:30:03;9.70;;;4.85;;
23539;SDS011;11947;50.810;4.394;2023-05-07T05:32:36;12.82;;;5.47;;
23539;SDS011;11947;50.810;4.394;2023-05-07T05:38:25;12.43;;;4.72;;
23539;SDS011;11947;50.810;4.394;2023-05-07T05:43:42;9.88;;;4.97;;
23539;SDS011;11947;50.810;4.394;2023-05-07T05:46:21;11.82;;;4.75;;
23539;SDS011;11947;50.810;4.394;2023-05-07T05:48:47;8.18;;;4.95;;
23539;SDS011;11947;50.810;4.394;2023-05-07T05:51:17;10.98;;;4.70;;
23539;SDS011;11947;50.810;4.394;2023-05-07T05:53:46;13.25;;;4.97;;
23539;SDS011;11947;50.810;4.394;2023-05-07T05:57:04;9.88;;;4.35;;
23539;SDS011;11947;50.810;4.394;2023-05-07T06:02:34;11.38;;;4.45;;
23539;SDS011;11947;50.810;4.394;2023-05-07T06:05:38;9.85;;;4.28;;
23539;SDS011;11947;50.810;4.394;2023-05-07T06:10:43;10.73;;;4.72;;
23539;SDS011;11947;50.810;4.394;2023-05-07T06:15:45;11.40;;;4.97;;
23539;SDS011;11947;50.810;4.394;2023-05-07T06:18:14;12.60;;;4.80;;
23539;SDS011;11947;50.810;4.394;2023-05-07T06:24:22;12.98;;;5.18;;
23539;SDS011;11947;50.810;4.394;2023-05-07T06:26:48;13.23;;;5.53;;
23539;SDS011;11947;50.810;4.394;2023-05-07T06:29:13;14.23;;;5.60;;
23539;SDS011;11947;50.810;4.394;2023-05-07T06:31:39;16.67;;;6.25;;
23539;SDS011;11947;50.810;4.394;2023-05-07T06:34:04;14.95;;;5.60;;
23539;SDS011;11947;50.810;4.394;2023-05-07T06:36:30;14.23;;;5.72;;
23539;SDS011;11947;50.810;4.394;2023-05-07T06:38:56;15.60;;;6.18;;
23539;SDS011;11947;50.810;4.394;2023-05-07T06:41:27;16.33;;;6.35;;
23539;SDS011;11947;50.810;4.394;2023-05-07T06:43:52;13.13;;;5.93;;
23539;SDS011;11947;50.810;4.394;2023-05-07T06:46:18;13.95;;;6.57;;
23539;SDS011;11947;50.810;4.394;2023-05-07T06:48:44;15.20;;;6.25;;
23539;SDS011;11947;50.810;4.394;2023-05-07T06:51:09;16.60;;;6.13;;
23539;SDS011;11947;50.810;4.394;2023-05-07T06:53:35;13.45;;;6.30;;
23539;SDS011;11947;50.810;4.394;2023-05-07T06:56:00;11.00;;;6.10;;
23539;SDS011;11947;50.810;4.394;2023-05-07T06:58:26;10.90;;;5.82;;
23539;SDS011;11947;50.810;4.394;2023-05-07T07:00:55;13.20;;;5.93;;
23539;SDS011;11947;50.810;4.394;2023-05-07T07:03:20;14.00;;;6.30;;
23539;SDS011;11947;50.810;4.394;2023-05-07T07:05:46;11.32;;;5.88;;
23539;SDS011;11947;50.810;4.394;2023-05-07T07:08:11;11.77;;;6.43;;
23539;SDS011;11947;50.810;4.394;2023-05-07T07:10:37;17.23;;;6.63;;
23539;SDS011;11947;50.810;4.394;2023-05-07T07:13:03;13.27;;;6.20;;
23539;SDS011;11947;50.810;4.394;2023-05-07T07:15:28;14.80;;;6.32;;
23539;SDS011;11947;50.810;4.394;2023-05-07T07:17:54;13.32;;;6.22;;
23539;SDS011;11947;50.810;4.394;2023-05-07T07:20:19;18.38;;;6.40;;
23539;SDS011;11947;50.810;4.394;2023-05-07T07:22:45;13.70;;;7.10;;
23539;SDS011;11947;50.810;4.394;2023-05-07T07:25:11;16.02;;;7.18;;
23539;SDS011;11947;50.810;4.394;2023-05-07T07:27:37;15.90;;;6.55;;
23539;SDS011;11947;50.810;4.394;2023-05-07T07:30:02;15.07;;;6.85;;
23539;SDS011;11947;50.810;4.394;2023-05-07T07:32:28;15.63;;;7.07;;
23539;SDS011;11947;50.810;4.394;2023-05-07T07:34:54;16.23;;;7.40;;
23539;SDS011;11947;50.810;4.394;2023-05-07T07:37:20;16.52;;;7.43;;
23539;SDS011;11947;50.810;4.394;2023-05-07T07:39:45;19.90;;;7.30;;
23539;SDS011;11947;50.810;4.394;2023-05-07T07:42:11;14.52;;;7.22;;
23539;SDS011;11947;50.810;4.394;2023-05-07T07:44:37;17.52;;;7.60;;
23539;SDS011;11947;50.810;4.394;2023-05-07T07:47:04;19.67;;;7.13;;
23539;SDS011;11947;50.810;4.394;2023-05-07T07:49:30;15.15;;;7.38;;
23539;SDS011;11947;50.810;4.394;2023-05-07T07:51:55;15.43;;;7.30;;
23539;SDS011;11947;50.810;4.394;2023-05-07T07:54:21;11.20;;;7.03;;
23539;SDS011;11947;50.810;4.394;2023-05-07T07:56:47;14.00;;;7.35;;
23539;SDS011;11947;50.810;4.394;2023-05-07T07:59:12;15.45;;;7.38;;
23539;SDS011;11947;50.810;4.394;2023-05-07T08:01:42;15.00;;;7.88;;
23539;SDS011;11947;50.810;4.394;2023-05-07T08:04:08;11.52;;;7.50;;
23539;SDS011;11947;50.810;4.394;2023-05-07T08:06:33;17.42;;;7.82;;
23539;SDS011;11947;50.810;4.394;2023-05-07T08:08:59;15.00;;;7.72;;
23539;SDS011;11947;50.810;4.394;2023-05-07T08:11:25;13.73;;;7.38;;
23539;SDS011;11947;50.810;4.394;2023-05-07T08:13:51;14.15;;;7.68;;
23539;SDS011;11947;50.810;4.394;2023-05-07T08:16:17;17.50;;;7.55;;
23539;SDS011;11947;50.810;4.394;2023-05-07T08:18:42;16.70;;;7.97;;
23539;SDS011;11947;50.810;4.394;2023-05-07T08:21:08;15.55;;;7.25;;
23539;SDS011;11947;50.810;4.394;2023-05-07T08:23:33;14.27;;;7.22;;
23539;SDS011;11947;50.810;4.394;2023-05-07T08:25:59;17.02;;;7.22;;
23539;SDS011;11947;50.810;4.394;2023-05-07T08:28:25;12.07;;;6.65;;
23539;SDS011;11947;50.810;4.394;2023-05-07T08:30:51;13.45;;;6.93;;
23539;SDS011;11947;50.810;4.394;2023-05-07T08:33:17;20.10;;;7.60;;
23539;SDS011;11947;50.810;4.394;2023-05-07T08:35:42;15.32;;;7.65;;
23539;SDS011;11947;50.810;4.394;2023-05-07T08:38:08;13.02;;;7.32;;
23539;SDS011;11947;50.810;4.394;2023-05-07T08:40:36;17.13;;;7.43;;
23539;SDS011;11947;50.810;4.394;2023-05-07T08:43:04;13.73;;;7.18;;
23539;SDS011;11947;50.810;4.394;2023-05-07T08:45:31;13.70;;;7.15;;
23539;SDS011;11947;50.810;4.394;2023-05-07T08:47:59;12.18;;;6.60;;
23539;SDS011;11947;50.810;4.394;2023-05-07T08:50:28;12.23;;;7.00;;
23539;SDS011;11947;50.810;4.394;2023-05-07T08:52:54;10.20;;;6.10;;
23539;SDS011;11947;50.810;4.394;2023-05-07T08:55:21;13.20;;;6.10;;
23539;SDS011;11947;50.810;4.394;2023-05-07T08:57:50;12.27;;;6.07;;
23539;SDS011;11947;50.810;4.394;2023-05-07T09:00:17;12.27;;;6.05;;
23539;SDS011;11947;50.810;4.394;2023-05-07T09:02:43;10.85;;;6.00;;
23539;SDS011;11947;50.810;4.394;2023-05-07T09:05:09;16.20;;;6.65;;
23539;SDS011;11947;50.810;4.394;2023-05-07T09:07:34;12.68;;;6.55;;
23539;SDS011;11947;50.810;4.394;2023-05-07T09:10:04;12.02;;;6.22;;
23539;SDS011;11947;50.810;4.394;2023-05-07T09:12:30;12.20;;;6.38;;
23539;SDS011;11947;50.810;4.394;2023-05-07T09:14:56;16.85;;;7.15;;
23539;SDS011;11947;50.810;4.394;2023-05-07T09:17:23;13.82;;;6.93;;
23539;SDS011;11947;50.810;4.394;2023-05-07T09:19:49;14.45;;;6.93;;
23539;SDS011;11947;50.810;4.394;2023-05-07T09:22:15;15.15;;;6.28;;
23539;SDS011;11947;50.810;4.394;2023-05-07T09:24:41;15.13;;;5.63;;
23539;SDS011;11947;50.810;4.394;2023-05-07T09:27:17;13.23;;;5.72;;
23539;SDS011;11947;50.810;4.394;2023-05-07T09:29:45;12.95;;;6.05;;
23539;SDS011;11947;50.810;4.394;2023-05-07T09:32:11;12.90;;;5.93;;
23539;SDS011;11947;50.810;4.394;2023-05-07T09:34:37;9.68;;;6.03;;
23539;SDS011;11947;50.810;4.394;2023-05-07T09:37:02;11.35;;;6.00;;
23539;SDS011;11947;50.810;4.394;2023-05-07T09:39:41;13.32;;;6.05;;
23539;SDS011;11947;50.810;4.394;2023-05-07T09:42:12;9.55;;;4.95;;
23539;SDS011;11947;50.810;4.394;2023-05-07T09:44:40;11.52;;;5.20;;
23539;SDS011;11947;50.810;4.394;2023-05-07T09:47:06;12.93;;;5.00;;
23539;SDS011;11947;50.810;4.394;2023-05-07T09:49:36;9.75;;;4.82;;
23539;SDS011;11947;50.810;4.394;2023-05-07T09:52:04;10.35;;;5.03;;
23539;SDS011;11947;50.810;4.394;2023-05-07T09:54:33;6.78;;;3.83;;
23539;SDS011;11947;50.810;4.394;2023-05-07T09:57:04;8.90;;;4.25;;
23539;SDS011;11947;50.810;4.394;2023-05-07T09:59:31;9.90;;;4.30;;
23539;SDS011;11947;50.810;4.394;2023-05-07T10:01:58;10.60;;;4.70;;
23539;SDS011;11947;50.810;4.394;2023-05-07T10:04:25;9.65;;;4.07;;
23539;SDS011;11947;50.810;4.394;2023-05-07T10:06:51;8.48;;;4.13;;
23539;SDS011;11947;50.810;4.394;2023-05-07T10:09:18;7.18;;;4.22;;
23539;SDS011;11947;50.810;4.394;2023-05-07T10:11:44;8.38;;;4.60;;
23539;SDS011;11947;50.810;4.394;2023-05-07T10:14:11;6.88;;;4.10;;
23539;SDS011;11947;50.810;4.394;2023-05-07T10:16:38;8.90;;;4.40;;
23539;SDS011;11947;50.810;4.394;2023-05-07T10:19:04;7.47;;;4.03;;
23539;SDS011;11947;50.810;4.394;2023-05-07T10:21:32;11.60;;;4.75;;
23539;SDS011;11947;50.810;4.394;2023-05-07T10:24:12;9.95;;;4.55;;
23539;SDS011;11947;50.810;4.394;2023-05-07T10:26:51;8.15;;;4.38;;
23539;SDS011;11947;50.810;4.394;2023-05-07T10:34:49;7.53;;;4.25;;
23539;SDS011;11947;50.810;4.394;2023-05-07T10:37:18;10.73;;;4.50;;
23539;SDS011;11947;50.810;4.394;2023-05-07T10:39:44;7.97;;;4.45;;
23539;SDS011;11947;50.810;4.394;2023-05-07T10:42:10;8.88;;;5.00;;
23539;SDS011;11947;50.810;4.394;2023-05-07T10:44:36;9.70;;;5.25;;
23539;SDS011;11947;50.810;4.394;2023-05-07T10:47:06;9.32;;;5.38;;
23539;SDS011;11947;50.810;4.394;2023-05-07T10:49:34;9.23;;;5.03;;
23539;SDS011;11947;50.810;4.394;2023-05-07T10:52:11;7.70;;;4.95;;
23539;SDS011;11947;50.810;4.394;2023-05-07T10:54:41;7.22;;;4.13;;
23539;SDS011;11947;50.810;4.394;2023-05-07T10:59:55;7.60;;;4.10;;
23539;SDS011;11947;50.810;4.394;2023-05-07T11:02:21;10.13;;;4.53;;
23539;SDS011;11947;50.810;4.394;2023-05-07T11:05:18;8.23;;;4.95;;
23539;SDS011;11947;50.810;4.394;2023-05-07T11:07:57;9.00;;;4.88;;
23539;SDS011;11947;50.810;4.394;2023-05-07T11:13:12;8.88;;;4.60;;
23539;SDS011;11947;50.810;4.394;2023-05-07T11:15:47;7.68;;;3.92;;
23539;SDS011;11947;50.810;4.394;2023-05-07T11:18:17;7.25;;;4.13;;
23539;SDS011;11947;50.810;4.394;2023-05-07T11:20:46;8.20;;;4.57;;
23539;SDS011;11947;50.810;4.394;2023-05-07T11:24:02;9.18;;;5.05;;
23539;SDS011;11947;50.810;4.394;2023-05-07T11:26:07;5.03;;;3.80;;
23539;SDS011;11947;50.810;4.394;2023-05-07T11:28:37;9.23;;;4.47;;
23539;SDS011;11947;50.810;4.394;2023-05-07T11:31:04;10.50;;;6.07;;
23539;SDS011;11947;50.810;4.394;2023-05-07T11:33:30;4.93;;;3.30;;
23539;SDS011;11947;50.810;4.394;2023-05-07T11:35:57;5.65;;;2.80;;
23539;SDS011;11947;50.810;4.394;2023-05-07T11:38:23;6.25;;;3.60;;
23539;SDS011;11947;50.810;4.394;2023-05-07T11:40:53;6.88;;;3.70;;
23539;SDS011;11947;50.810;4.394;2023-05-07T11:43:25;6.30;;;3.42;;
23539;SDS011;11947;50.810;4.394;2023-05-07T11:45:51;5.90;;;3.65;;
23539;SDS011;11947;50.810;4.394;2023-05-07T11:48:17;7.20;;;3.63;;
23539;SDS011;11947;50.810;4.394;2023-05-07T11:50:59;7.88;;;3.50;;
23539;SDS011;11947;50.810;4.394;2023-05-07T11:53:25;5.05;;;3.00;;
23539;SDS011;11947;50.810;4.394;2023-05-07T11:55:52;6.07;;;3.28;;
23539;SDS011;11947;50.810;4.394;2023-05-07T11:58:22;5.50;;;3.13;;
23539;SDS011;11947;50.810;4.394;2023-05-07T12:00:51;4.63;;;3.33;;
23539;SDS011;11947;50.810;4.394;2023-05-07T12:03:17;8.73;;;3.13;;
23539;SDS011;11947;50.810;4.394;2023-05-07T12:05:45;6.93;;;3.40;;
23539;SDS011;11947;50.810;4.394;2023-05-07T12:08:17;5.57;;;3.40;;
23539;SDS011;11947;50.810;4.394;2023-05-07T12:10:44;6.85;;;3.83;;
23539;SDS011;11947;50.810;4.394;2023-05-07T12:13:16;5.53;;;3.53;;
23539;SDS011;11947;50.810;4.394;2023-05-07T12:15:54;5.15;;;3.42;;
23539;SDS011;11947;50.810;4.394;2023-05-07T12:18:21;7.50;;;3.50;;
23539;SDS011;11947;50.810;4.394;2023-05-07T12:20:48;6.93;;;3.58;;
23539;SDS011;11947;50.810;4.394;2023-05-07T12:23:15;4.68;;;3.20;;
23539;SDS011;11947;50.810;4.394;2023-05-07T12:25:41;6.43;;;3.80;;
23539;SDS011;11947;50.810;4.394;2023-05-07T12:28:15;4.40;;;3.15;;
23539;SDS011;11947;50.810;4.394;2023-05-07T12:30:42;5.70;;;3.97;;
23539;SDS011;11947;50.810;4.394;2023-05-07T12:33:10;7.60;;;4.35;;
23539;SDS011;11947;50.810;4.394;2023-05-07T12:35:37;7.85;;;4.05;;
23539;SDS011;11947;50.810;4.394;2023-05-07T12:38:08;6.65;;;4.07;;
23539;SDS011;11947;50.810;4.394;2023-05-07T12:40:38;7.22;;;4.50;;
23539;SDS011;11947;50.810;4.394;2023-05-07T12:43:05;6.97;;;4.68;;
23539;SDS011;11947;50.810;4.394;2023-05-07T12:45:31;7.80;;;5.30;;
23539;SDS011;11947;50.810;4.394;2023-05-07T12:48:01;7.78;;;4.95;;
23539;SDS011;11947;50.810;4.394;2023-05-07T12:50:30;6.63;;;4.78;;
23539;SDS011;11947;50.810;4.394;2023-05-07T12:52:58;8.88;;;5.07;;
23539;SDS011;11947;50.810;4.394;2023-05-07T12:55:24;8.35;;;5.80;;
23539;SDS011;11947;50.810;4.394;2023-05-07T12:57:50;8.13;;;5.85;;
23539;SDS011;11947;50.810;4.394;2023-05-07T13:00:17;9.93;;;6.63;;
23539;SDS011;11947;50.810;4.394;2023-05-07T13:02:58;8.90;;;6.35;;
23539;SDS011;11947;50.810;4.394;2023-05-07T13:05:23;9.63;;;7.15;;
23539;SDS011;11947;50.810;4.394;2023-05-07T13:07:53;14.18;;;8.75;;
23539;SDS011;11947;50.810;4.394;2023-05-07T13:10:19;13.65;;;9.25;;
23539;SDS011;11947;50.810;4.394;2023-05-07T13:12:45;13.05;;;9.57;;
23539;SDS011;11947;50.810;4.394;2023-05-07T13:15:10;13.70;;;9.50;;
23539;SDS011;11947;50.810;4.394;2023-05-07T13:17:36;13.68;;;9.80;;
23539;SDS011;11947;50.810;4.394;2023-05-07T13:20:02;12.77;;;9.70;;
23539;SDS011;11947;50.810;4.394;2023-05-07T13:22:28;14.65;;;10.18;;
23539;SDS011;11947;50.810;4.394;2023-05-07T13:24:53;15.95;;;9.82;;
23539;SDS011;11947;50.810;4.394;2023-05-07T13:27:19;14.10;;;9.82;;
23539;SDS011;11947;50.810;4.394;2023-05-07T13:29:45;17.92;;;10.70;;
23539;SDS011;11947;50.810;4.394;2023-05-07T13:32:11;16.40;;;11.25;;
23539;SDS011;11947;50.810;4.394;2023-05-07T13:34:36;15.95;;;10.63;;
23539;SDS011;11947;50.810;4.394;2023-05-07T13:37:02;14.77;;;10.55;;
23539;SDS011;11947;50.810;4.394;2023-05-07T13:39:28;15.13;;;10.90;;
23539;SDS011;11947;50.810;4.394;2023-05-07T13:41:53;16.08;;;11.60;;
23539;SDS011;11947;50.810;4.394;2023-05-07T13:44:19;15.88;;;11.48;;
23539;SDS011;11947;50.810;4.394;2023-05-07T13:46:45;18.02;;;11.80;;
23539;SDS011;11947;50.810;4.394;2023-05-07T13:49:11;19.65;;;11.82;;
23539;SDS011;11947;50.810;4.394;2023-05-07T13:51:37;20.00;;;11.93;;
23539;SDS011;11947;50.810;4.394;2023-05-07T13:54:03;20.40;;;12.18;;
23539;SDS011;11947;50.810;4.394;2023-05-07T13:56:29;17.45;;;12.07;;
23539;SDS011;11947;50.810;4.394;2023-05-07T13:58:57;19.25;;;12.55;;
23539;SDS011;11947;50.810;4.394;2023-05-07T14:01:23;18.63;;;12.05;;
23539;SDS011;11947;50.810;4.394;2023-05-07T14:03:48;18.95;;;12.75;;
23539;SDS011;11947;50.810;4.394;2023-05-07T14:06:14;17.30;;;11.55;;
23539;SDS011;11947;50.810;4.394;2023-05-07T14:08:40;16.98;;;11.40;;
23539;SDS011;11947;50.810;4.394;2023-05-07T14:11:06;18.63;;;12.57;;
23539;SDS011;11947;50.810;4.394;2023-05-07T14:13:31;18.17;;;11.20;;
23539;SDS011;11947;50.810;4.394;2023-05-07T14:15:57;18.65;;;12.02;;
23539;SDS011;11947;50.810;4.394;2023-05-07T14:18:23;17.17;;;11.63;;
23539;SDS011;11947;50.810;4.394;2023-05-07T14:20:49;17.60;;;11.07;;
23539;SDS011;11947;50.810;4.394;2023-05-07T14:23:15;20.25;;;11.88;;
23539;SDS011;11947;50.810;4.394;2023-05-07T14:25:42;20.48;;;12.43;;
23539;SDS011;11947;50.810;4.394;2023-05-07T14:28:08;17.63;;;12.38;;
23539;SDS011;11947;50.810;4.394;2023-05-07T14:30:34;19.08;;;12.23;;
23539;SDS011;11947;50.810;4.394;2023-05-07T14:33:00;17.45;;;11.98;;
23539;SDS011;11947;50.810;4.394;2023-05-07T14:35:25;17.70;;;12.15;;
23539;SDS011;11947;50.810;4.394;2023-05-07T14:37:51;19.52;;;12.25;;
23539;SDS011;11947;50.810;4.394;2023-05-07T14:40:16;18.23;;;12.05;;
23539;SDS011;11947;50.810;4.394;2023-05-07T14:42:42;19.77;;;12.10;;
23539;SDS011;11947;50.810;4.394;2023-05-07T14:45:08;16.00;;;10.57;;
23539;SDS011;11947;50.810;4.394;2023-05-07T14:47:34;18.38;;;11.85;;
23539;SDS011;11947;50.810;4.394;2023-05-07T14:50:00;15.65;;;10.93;;
23539;SDS011;11947;50.810;4.394;2023-05-07T14:52:26;16.92;;;11.23;;
23539;SDS011;11947;50.810;4.394;2023-05-07T14:54:51;17.67;;;10.98;;
23539;SDS011;11947;50.810;4.394;2023-05-07T14:57:17;15.05;;;10.75;;
23539;SDS011;11947;50.810;4.394;2023-05-07T14:59:44;16.73;;;10.38;;
23539;SDS011;11947;50.810;4.394;2023-05-07T15:02:11;16.40;;;11.10;;
23539;SDS011;11947;50.810;4.394;2023-05-07T15:04:37;16.08;;;11.88;;
23539;SDS011;11947;50.810;4.394;2023-05-07T15:07:11;18.98;;;11.43;;
23539;SDS011;11947;50.810;4.394;2023-05-07T15:09:40;15.95;;;10.50;;
23539;SDS011;11947;50.810;4.394;2023-05-07T15:12:06;15.02;;;10.85;;
23539;SDS011;11947;50.810;4.394;2023-05-07T15:14:32;19.45;;;10.95;;
23539;SDS011;11947;50.810;4.394;2023-05-07T15:16:58;14.60;;;10.60;;
23539;SDS011;11947;50.810;4.394;2023-05-07T15:19:23;17.60;;;11.13;;
23539;SDS011;11947;50.810;4.394;2023-05-07T15:21:53;18.08;;;12.68;;
23539;SDS011;11947;50.810;4.394;2023-05-07T15:24:20;20.45;;;13.70;;
23539;SDS011;11947;50.810;4.394;2023-05-07T15:26:46;18.55;;;12.50;;
23539;SDS011;11947;50.810;4.394;2023-05-07T15:29:11;14.55;;;9.70;;
23539;SDS011;11947;50.810;4.394;2023-05-07T15:31:37;12.25;;;9.00;;
23539;SDS011;11947;50.810;4.394;2023-05-07T15:34:03;15.07;;;9.27;;
23539;SDS011;11947;50.810;4.394;2023-05-07T15:36:29;15.30;;;10.23;;
23539;SDS011;11947;50.810;4.394;2023-05-07T15:38:55;12.48;;;9.70;;
23539;SDS011;11947;50.810;4.394;2023-05-07T15:41:21;13.50;;;9.95;;
23539;SDS011;11947;50.810;4.394;2023-05-07T15:43:48;15.00;;;10.70;;
23539;SDS011;11947;50.810;4.394;2023-05-07T15:46:19;16.92;;;9.95;;
23539;SDS011;11947;50.810;4.394;2023-05-07T15:48:46;13.27;;;9.95;;
23539;SDS011;11947;50.810;4.394;2023-05-07T15:51:11;19.33;;;12.07;;
23539;SDS011;11947;50.810;4.394;2023-05-07T15:53:37;14.75;;;11.05;;
23539;SDS011;11947;50.810;4.394;2023-05-07T15:56:04;14.85;;;11.00;;
23539;SDS011;11947;50.810;4.394;2023-05-07T15:58:31;16.55;;;10.82;;
23539;SDS011;11947;50.810;4.394;2023-05-07T16:00:56;16.13;;;11.20;;
23539;SDS011;11947;50.810;4.394;2023-05-07T16:03:22;17.67;;;11.10;;
23539;SDS011;11947;50.810;4.394;2023-05-07T16:05:48;13.23;;;10.30;;
23539;SDS011;11947;50.810;4.394;2023-05-07T16:08:13;15.55;;;11.20;;
23539;SDS011;11947;50.810;4.394;2023-05-07T16:10:39;19.90;;;11.27;;
23539;SDS011;11947;50.810;4.394;2023-05-07T16:13:05;14.35;;;11.23;;
23539;SDS011;11947;50.810;4.394;2023-05-07T16:15:31;14.00;;;10.18;;
23539;SDS011;11947;50.810;4.394;2023-05-07T16:17:56;15.50;;;10.18;;
23539;SDS011;11947;50.810;4.394;2023-05-07T16:20:27;17.65;;;10.90;;
23539;SDS011;11947;50.810;4.394;2023-05-07T16:22:54;17.90;;;11.20;;
23539;SDS011;11947;50.810;4.394;2023-05-07T16:25:20;16.60;;;11.52;;
23539;SDS011;11947;50.810;4.394;2023-05-07T16:27:45;15.60;;;10.52;;
23539;SDS011;11947;50.810;4.394;2023-05-07T16:30:11;14.10;;;10.35;;
23539;SDS011;11947;50.810;4.394;2023-05-07T16:32:37;14.70;;;10.10;;
23539;SDS011;11947;50.810;4.394;2023-05-07T16:35:03;11.57;;;8.65;;
23539;SDS011;11947;50.810;4.394;2023-05-07T16:37:28;10.88;;;8.38;;
23539;SDS011;11947;50.810;4.394;2023-05-07T16:39:54;15.88;;;8.38;;
23539;SDS011;11947;50.810;4.394;2023-05-07T16:42:24;11.75;;;8.20;;
23539;SDS011;11947;50.810;4.394;2023-05-07T16:44:50;12.77;;;8.70;;
23539;SDS011;11947;50.810;4.394;2023-05-07T16:47:15;14.10;;;9.00;;
23539;SDS011;11947;50.810;4.394;2023-05-07T16:49:41;12.07;;;8.13;;
23539;SDS011;11947;50.810;4.394;2023-05-07T16:52:07;11.50;;;8.27;;
23539;SDS011;11947;50.810;4.394;2023-05-07T16:54:34;12.68;;;9.32;;
23539;SDS011;11947;50.810;4.394;2023-05-07T16:57:00;16.00;;;10.07;;
23539;SDS011;11947;50.810;4.394;2023-05-07T16:59:26;13.85;;;9.93;;
23539;SDS011;11947;50.810;4.394;2023-05-07T17:01:56;11.82;;;8.77;;
23539;SDS011;11947;50.810;4.394;2023-05-07T17:04:21;12.05;;;8.90;;
23539;SDS011;11947;50.810;4.394;2023-05-07T17:06:47;10.88;;;8.23;;
23539;SDS011;11947;50.810;4.394;2023-05-07T17:09:13;13.35;;;8.57;;
23539;SDS011;11947;50.810;4.394;2023-05-07T17:11:38;12.73;;;8.65;;
23539;SDS011;11947;50.810;4.394;2023-05-07T17:14:04;13.63;;;9.05;;
23539;SDS011;11947;50.810;4.394;2023-05-07T17:16:30;13.05;;;9.05;;
23539;SDS011;11947;50.810;4.394;2023-05-07T17:18:55;13.60;;;8.25;;
23539;SDS011;11947;50.810;4.394;2023-05-07T17:21:21;12.60;;;9.10;;
23539;SDS011;11947;50.810;4.394;2023-05-07T17:23:47;12.50;;;8.80;;
23539;SDS011;11947;50.810;4.394;2023-05-07T17:26:16;12.88;;;9.15;;
23539;SDS011;11947;50.810;4.394;2023-05-07T17:28:41;16.33;;;10.30;;
23539;SDS011;11947;50.810;4.394;2023-05-07T17:31:07;12.60;;;9.80;;
23539;SDS011;11947;50.810;4.394;2023-05-07T17:33:33;14.18;;;8.57;;
23539;SDS011;11947;50.810;4.394;2023-05-07T17:35:58;12.40;;;8.90;;
23539;SDS011;11947;50.810;4.394;2023-05-07T17:38:27;12.75;;;9.25;;
23539;SDS011;11947;50.810;4.394;2023-05-07T17:40:53;15.50;;;9.88;;
23539;SDS011;11947;50.810;4.394;2023-05-07T17:43:19;12.35;;;8.45;;
23539;SDS011;11947;50.810;4.394;2023-05-07T17:45:47;14.35;;;9.07;;
23539;SDS011;11947;50.810;4.394;2023-05-07T17:48:13;12.50;;;8.30;;
23539;SDS011;11947;50.810;4.394;2023-05-07T17:50:39;12.15;;;8.85;;
23539;SDS011;11947;50.810;4.394;2023-05-07T17:53:05;11.10;;;7.75;;
23539;SDS011;11947;50.810;4.394;2023-05-07T17:55:30;11.75;;;7.72;;
23539;SDS011;11947;50.810;4.394;2023-05-07T17:58:04;11.48;;;8.10;;
23539;SDS011;11947;50.810;4.394;2023-05-07T18:00:30;11.25;;;8.35;;
23539;SDS011;11947;50.810;4.394;2023-05-07T18:02:55;13.07;;;8.95;;
23539;SDS011;11947;50.810;4.394;2023-05-07T18:05:23;10.93;;;8.60;;
23539;SDS011;11947;50.810;4.394;2023-05-07T18:07:50;12.80;;;8.68;;
23539;SDS011;11947;50.810;4.394;2023-05-07T18:10:15;12.75;;;9.20;;
23539;SDS011;11947;50.810;4.394;2023-05-07T18:12:41;13.10;;;8.40;;
23539;SDS011;11947;50.810;4.394;2023-05-07T18:15:07;13.55;;;9.70;;
23539;SDS011;11947;50.810;4.394;2023-05-07T18:17:33;15.00;;;9.57;;
23539;SDS011;11947;50.810;4.394;2023-05-07T18:19:59;12.93;;;9.48;;
23539;SDS011;11947;50.810;4.394;2023-05-07T18:22:25;16.17;;;9.98;;
23539;SDS011;11947;50.810;4.394;2023-05-07T18:24:51;17.38;;;11.10;;
23539;SDS011;11947;50.810;4.394;2023-05-07T18:27:16;15.57;;;10.23;;
23539;SDS011;11947;50.810;4.394;2023-05-07T18:29:42;13.85;;;10.15;;
23539;SDS011;11947;50.810;4.394;2023-05-07T18:32:08;14.63;;;9.75;;
23539;SDS011;11947;50.810;4.394;2023-05-07T18:34:33;16.08;;;10.50;;
23539;SDS011;11947;50.810;4.394;2023-05-07T18:36:59;13.15;;;9.90;;
23539;SDS011;11947;50.810;4.394;2023-05-07T18:39:25;15.23;;;10.13;;
23539;SDS011;11947;50.810;4.394;2023-05-07T18:41:50;15.38;;;10.07;;
23539;SDS011;11947;50.810;4.394;2023-05-07T18:44:17;14.10;;;9.63;;
23539;SDS011;11947;50.810;4.394;2023-05-07T18:46:42;13.23;;;9.63;;
23539;SDS011;11947;50.810;4.394;2023-05-07T18:49:09;13.50;;;9.70;;
23539;SDS011;11947;50.810;4.394;2023-05-07T18:51:35;13.18;;;9.77;;
23539;SDS011;11947;50.810;4.394;2023-05-07T18:54:00;12.68;;;9.20;;
23539;SDS011;11947;50.810;4.394;2023-05-07T18:56:26;14.45;;;9.50;;
23539;SDS011;11947;50.810;4.394;2023-05-07T18:58:52;13.02;;;10.10;;
23539;SDS011;11947;50.810;4.394;2023-05-07T19:01:17;13.10;;;9.55;;
23539;SDS011;11947;50.810;4.394;2023-05-07T19:03:43;15.25;;;9.52;;
23539;SDS011;11947;50.810;4.394;2023-05-07T19:06:08;17.48;;;10.15;;
23539;SDS011;11947;50.810;4.394;2023-05-07T19:08:34;15.23;;;10.32;;
23539;SDS011;11947;50.810;4.394;2023-05-07T19:11:00;16.75;;;10.27;;
23539;SDS011;11947;50.810;4.394;2023-05-07T19:13:27;15.70;;;10.80;;
23539;SDS011;11947;50.810;4.394;2023-05-07T19:15:53;16.58;;;10.57;;
23539;SDS011;11947;50.810;4.394;2023-05-07T19:18:18;18.35;;;10.50;;
23539;SDS011;11947;50.810;4.394;2023-05-07T19:20:45;18.85;;;10.52;;
23539;SDS011;11947;50.810;4.394;2023-05-07T19:23:12;15.10;;;11.35;;
23539;SDS011;11947;50.810;4.394;2023-05-07T19:25:38;18.80;;;11.15;;
23539;SDS011;11947;50.810;4.394;2023-05-07T19:28:03;16.95;;;10.20;;
23539;SDS011;11947;50.810;4.394;2023-05-07T19:30:29;18.85;;;11.00;;
23539;SDS011;11947;50.810;4.394;2023-05-07T19:32:55;14.65;;;10.57;;
23539;SDS011;11947;50.810;4.394;2023-05-07T19:35:23;16.60;;;11.02;;
23539;SDS011;11947;50.810;4.394;2023-05-07T19:37:49;15.30;;;10.40;;
23539;SDS011;11947;50.810;4.394;2023-05-07T19:40:15;18.75;;;10.93;;
23539;SDS011;11947;50.810;4.394;2023-05-07T19:42:40;17.60;;;11.02;;
23539;SDS011;11947;50.810;4.394;2023-05-07T19:45:06;16.95;;;11.25;;
23539;SDS011;11947;50.810;4.394;2023-05-07T19:47:32;15.45;;;10.63;;
23539;SDS011;11947;50.810;4.394;2023-05-07T19:49:58;19.25;;;11.88;;
23539;SDS011;11947;50.810;4.394;2023-05-07T19:52:24;16.90;;;11.10;;
23539;SDS011;11947;50.810;4.394;2023-05-07T19:54:50;17.92;;;12.02;;
23539;SDS011;11947;50.810;4.394;2023-05-07T19:57:16;16.80;;;11.88;;
23539;SDS011;11947;50.810;4.394;2023-05-07T19:59:42;17.63;;;11.52;;
23539;SDS011;11947;50.810;4.394;2023-05-07T20:02:08;18.80;;;10.80;;
23539;SDS011;11947;50.810;4.394;2023-05-07T20:04:33;20.35;;;11.95;;
23539;SDS011;11947;50.810;4.394;2023-05-07T20:07:02;16.80;;;10.68;;
23539;SDS011;11947;50.810;4.394;2023-05-07T20:09:28;18.95;;;11.02;;
23539;SDS011;11947;50.810;4.394;2023-05-07T20:11:54;20.27;;;11.68;;
23539;SDS011;11947;50.810;4.394;2023-05-07T20:14:20;18.80;;;11.80;;
23539;SDS011;11947;50.810;4.394;2023-05-07T20:16:46;18.08;;;11.98;;
23539;SDS011;11947;50.810;4.394;2023-05-07T20:19:12;21.70;;;11.75;;
23539;SDS011;11947;50.810;4.394;2023-05-07T20:21:37;17.75;;;12.23;;
23539;SDS011;11947;50.810;4.394;2023-05-07T20:24:03;17.63;;;11.82;;
23539;SDS011;11947;50.810;4.394;2023-05-07T20:26:30;21.15;;;12.75;;
23539;SDS011;11947;50.810;4.394;2023-05-07T20:28:55;16.92;;;11.57;;